Aviatik   Themenpakete

METAR Europa  Beispiel


Deutschland

VQLA05 LSSW 121636
MeteoSchweiz / MeteoSuisse / MeteoSvizzera / MeteoSwiss
METAR LSZHZURICH 121550Z 28008KT 240V320 9999 FEW050 25/14 Q1020 NOSIG=
METAR LSZHZURICH 121620Z 30008KT 250V320 9999 FEW050 25/13 Q1019 NOSIG=
METAR LSGGGENEVA 121550Z 04007KT 350V070 9999 FEW060 27/14 Q1019 NOSIG=
METAR LSGGGENEVA 121620Z 05008KT 020V080 9999 FEW060 27/13 Q1019 NOSIG=
METAR LFSBBASLE-MULHOUSE 121630Z 25005KT 210V280 9999 FEW055 26/14 Q1019 NOSIG=
METAR LFSTSTRASBOURG ENTZHEIM 121630Z 31006KT 270V340 9999 FEW053 BKN260 27/14 Q1018 NOSIG=
METAR EDDSSTUTTGART 121620Z 27006KT CAVOK 25/11 Q1019 NOSIG=
METAR EDDRSAARBRUCKEN 121620Z 25012KT 9999 FEW043 BKN300 24/13 Q1019 NOSIG=
METAR EDNYFRIEDRICHSHAFEN 121620Z 25005KT 220V300 9999 FEW035 25/15 Q1019=
METAR EDMAAUGSBURG MUHLHAUSEN 121620Z 28005KT 240V320 CAVOK 24/12 Q1019=
METAR EDDMMUNICH 121620Z 28006KT CAVOK 25/11 Q1019 NOSIG=
METAR EDDNNURNBERG 121620Z 28009KT 9999 FEW040 SCT100 BKN300 24/12 Q1017 NOSIG=
METAR EDQMHOF PLAUEN 121620Z 24007KT 9999 BKN039 BKN120 20/11 Q1018=
METAR EDDFFRANKFURT 121620Z 24013KT CAVOK 26/12 Q1016 NOSIG=
METAR EDDKKOLN-BONN 121620Z 34005KT 6000 -RA FEW025 BKN035 19/17 Q1016 NOSIG=
METAR EDLWDORTMUND WICKEDE 121620Z 26004KT 190V300 6000 SCT007 OVC028 17/16 Q1017=
METAR EDDLDUSSELDORF 121620Z 35004KT 4000 +RA BR FEW004 SCT007 BKN014 17/16 Q1017 BECMG 5000 RA BKN015=
METAR EDDGMUNSTER-OSNABRUCK 121620Z 25008KT 9999 FEW016 SCT070 BKN100 19/17 Q1015 NOSIG=
METAR EDLPPADERBORN LIPPSTAD 121620Z 25005KT 220V300 3500 SHRA BR SCT005 BKN008 17/16 Q1016=
METAR EDDVHANNOVER 121620Z 26011KT 9999 FEW030TCU SCT250 22/15 Q1014 NOSIG=
METAR EDDHHAMBURG 121620Z 30016KT 9999 FEW030 SCT050 20/13 Q1013 NOSIG=
METAR EDDTBERLIN TEGEL 121620Z 27010KT 9999 SCT040 22/13 Q1012 NOSIG=
METAR EDDBBERLIN-SCHONEFELD 121620Z 25014KT 9999 SCT035 22/14 Q1012 NOSIG=
METAR EDDCDRESDEN 121620Z 26010KT 9999 FEW037 BKN100 BKN240 22/13 Q1015 NOSIG=
METAR EDDEERFURT 121620Z 27015KT 9999 -RA FEW030 BKN040 BKN100 19/14 Q1017 NOSIG=
METAR EDDPLEIPZIG 121620Z 27015KT 9999 RA FEW004 BKN030 OVC070 18/16 Q1015 NOSIG=
METAR ETSIINGOLSTADT/MANCHING 121620Z 29006KT 9999 FEW070 BKN200 24/12 Q1018 BLU+=
METAR ETHLLAUPHEIM 121620Z 25006KT 9999 FEW030 SCT050 BKN250 24/11 Q1019 BLU+BLU+=





Nordfrankreich

VQLA07 LSSW 121610
MeteoSchweiz / MeteoSuisse / MeteoSvizzera / MeteoSwiss
METAR LSZHZURICH 121520Z 26006KT 200V310 9999 FEW050 26/14 Q1020 NOSIG=
METAR LSZHZURICH 121550Z 28008KT 240V320 9999 FEW050 25/14 Q1020 NOSIG=
METAR LSGGGENEVA 121520Z 06005KT 350V140 9999 FEW055 27/14 Q1020 NOSIG=
METAR LSGGGENEVA 121550Z 04007KT 350V070 9999 FEW060 27/14 Q1019 NOSIG=
METAR LFSBBASLE-MULHOUSE 121600Z 25005KT 220V280 9999 FEW055 27/14 Q1019 NOSIG=
METAR LFSCCOLMAR MEYENHEIM 121530Z AUTO 19004KT 100V240 //// // ///////// 28/14 Q1019=
METAR LFSTSTRASBOURG ENTZHEIM 121600Z 00000KT 9999 FEW053 BKN250 27/15 Q1018 NOSIG=
METAR LFSDDIJON LONGVIC 121530Z AUTO 35004KT 290V070 9999NDV NSC 27/14 Q1020=
METAR LFSFMETZ FRESCATY 121530Z AUTO 27008KT 220V310 9999NDV // NSC 26/14 Q1019=
METAR LFJLMETZ NANCY LORRAINE 121530Z AUTO 28012KT 9999NDV NSC 25/14 Q1020=
METAR LFSRREIMS CHAMPAGNE 121600Z AUTO 28008KT 9999NDV NSC 28/15 Q1018=
METAR LFPBPARIS LE BOURGET 121600Z 32007KT 270V010 CAVOK 29/14 Q1019 NOSIG=
METAR LFPGPARIS DE GAULLE 121600Z 28011KT 260V320 CAVOK 29/15 Q1019 NOSIG=
METAR LFPOPARIS ORLY 121600Z 30009KT 270V360 CAVOK 29/13 Q1019 NOSIG=
METAR LFPNTOUSSUS-LE-NOBLE 121600Z 30008KT 270V350 CAVOK 29/14 Q1020 NOSIG=
METAR LFQQLILLE LESQUIN 121600Z 27014KT 9999 FEW040 BKN140 BKN260 22/17 Q1018 NOSIG=
METAR LFRGDEAUVILLE ST.GATIEN 121600Z AUTO 34007KT 290V020 9999NDV OVC005 18/16 Q1022=
METAR LFRKCAEN CARPIQUET 121530Z NIL=
METAR EGJAALDERNEY 121550Z 26010KT 9999 SCT001 BKN002 18/16 Q1022=
METAR EGJBGUERNSEY 121550Z 27012KT 5000 BR SCT002 BKN003 17/17 Q1023=
METAR EGJJJERSEY 121550Z 27010KT 220V310 0700 R27/1400 -DZ BKN000 17/16 Q1023 BECMG 1500 BKN001=
METAR LFRDDINARD PLEURTUIT 121600Z AUTO 33008KT 9999NDV BKN008 20/16 Q1023=
METAR LFRTST.BRIEUC ARMOR 121530Z NIL=
METAR LFRBBREST GUIPAVAS 121600Z 34009KT 310V020 9999 FEW010 19/15 Q1023 NOSIG=
METAR LFRHLORIENT LANN-BIHOU 121530Z NIL=
METAR LFRZST.NAZAIRE MONTOIR 121530Z AUTO 31007KT 280V340 9999NDV NSC 27/16 Q1022=
METAR LFRSNANTES ATLANTIQUE 121600Z 01005KT 300V050 CAVOK 28/15 Q1021 NOSIG=
METAR LFOTTOURS VAL DE LOIRE 121600Z AUTO 32005KT 250V010 9999NDV NSC 29/11 Q1020=
METAR LFOAAVORD 121530Z 34005KT 270V050 CAVOK 28/13 Q1021=





S├╝dfrankreich

VQLA06 LSSW 121610
MeteoSchweiz / MeteoSuisse / MeteoSvizzera / MeteoSwiss
METAR LSZHZURICH 121520Z 26006KT 200V310 9999 FEW050 26/14 Q1020 NOSIG=
METAR LSZHZURICH 121550Z 28008KT 240V320 9999 FEW050 25/14 Q1020 NOSIG=
METAR LSGGGENEVA 121520Z 06005KT 350V140 9999 FEW055 27/14 Q1020 NOSIG=
METAR LSGGGENEVA 121550Z 04007KT 350V070 9999 FEW060 27/14 Q1019 NOSIG=
METAR LFSBBASLE-MULHOUSE 121600Z 25005KT 220V280 9999 FEW055 27/14 Q1019 NOSIG=
METAR LFLBCHAMBERY AIX LES BAI 121530Z NIL=
METAR LFLSGRENOBLE ST.GEOIRS 121600Z 35009KT 310V030 9999 FEW050 28/13 Q1019 NOSIG=
METAR LFLLLYON SAINT EXUPERY 121600Z 34011KT 310V010 CAVOK 28/12 Q1019 NOSIG=
METAR LFLYLYON BRON 121530Z NIL=
METAR LFLCCLERMONT-FERRAND 121530Z NIL=
METAR LFTWNIMES GARONS 121530Z AUTO 03008KT 350V090 9999NDV NSC 33/11 Q1015=
METAR LFMTMONTPELLIER MEDITERA 121530Z NIL=
METAR LFMPPERPIGNAN RIVESALT 121530Z NIL=
METAR LFMLMARSEILLE PROVENCE 121600Z 18009KT CAVOK 31/16 Q1015 NOSIG=
METAR LFTHHYERES LE PALYVESTRE 121530Z NIL=
METAR LFMNNICE COTE D'AZUR 121600Z 19003KT 130V230 9999 FEW016 27/21 Q1016 NOSIG=
METAR LFKBBASTIA 121600Z 02005KT 340V050 9999 FEW020TCU 28/20 Q1015 NOSIG=
METAR LFKCCALVI ST.CATHERINE 121530Z NIL=
METAR LFKJAJACCIO 121600Z 23005KT 9999 FEW050TCU 29/20 Q1014 NOSIG=
METAR LFBLLIMOGES BELLEGARDE 121530Z NIL=
METAR LFBDBORDEAUX MERIGNAC 121600Z 34007KT 260V020 CAVOK 29/14 Q1020 NOSIG=
METAR LFBOTOULOUSE BLAGNAC 121600Z 34010KT 280V010 CAVOK 30/12 Q1019 NOSIG=
METAR LFBTTARBES LOURDES PYREN 121600Z 35004KT 320V030 9999 FEW040 27/15 Q1021 NOSIG=
METAR LFBZBIARRITZ BAYONNE 121600Z 34010KT 9999 FEW023 24/19 Q1021 NOSIG=
METAR LFKSSOLENZARA VENTISERI 121530Z AUTO 12005KT 050V180 9999NDV // NSC 29/19 Q1015=
METAR LFMOORANGE CARITAT 121530Z 35012KT CAVOK 33/12 Q1015=
METAR RRALFBCCAZAUX 121530Z AUTO 30011KT 9999NDV // NSC 27/18 Q1020=





Italien

VQLA08 LSSW 121609
MeteoSchweiz / MeteoSuisse / MeteoSvizzera / MeteoSwiss
METAR LSZHZURICH 121520Z 26006KT 200V310 9999 FEW050 26/14 Q1020 NOSIG=
METAR LSZHZURICH 121550Z 28008KT 240V320 9999 FEW050 25/14 Q1020 NOSIG=
METAR LSGGGENEVA 121520Z 06005KT 350V140 9999 FEW055 27/14 Q1020 NOSIG=
METAR LSGGGENEVA 121550Z 04007KT 350V070 9999 FEW060 27/14 Q1019 NOSIG=
METAR LFSBBASLE-MULHOUSE 121600Z 25005KT 220V280 9999 FEW055 27/14 Q1019 NOSIG=
METAR RRALSZALUGANO 121520Z 25003KT 190V330 9999 FEW050 30/18 Q1016 NOSIG=
METAR LSZALUGANO 121550Z 25004KT 170V300 9999 FEW050 30/18 Q1016 NOSIG=
METAR LIMEBERGAMO ORIO AL SERI 121550Z NIL=
METAR LIMCMILAN MALPENSA 121550Z 24006KT 200V280 CAVOK 30/21 Q1015 NOSIG=
METAR LIMLMILAN LINATE 121550Z VRB02KT 9999 FEW030 32/20 Q1015 NOSIG=
METAR LIMFTORINO CASELLE 121550Z 31003KT 9999 FEW030 30/20 Q1016=
METAR LIMJGENOA 121550Z 23005KT CAVOK 27/21 Q1016=
METAR LFMNNICE COTE D'AZUR 121600Z 19003KT 130V230 9999 FEW016 27/21 Q1016 NOSIG=
METAR LIPBBOLZANO 121550Z 15006KT 110V180 9999 FEW070 30/17 Q1015=
METAR LIPXVERONA VILLAFRANCA 121545Z 18004KT 9999 FEW030 33/11 Q1014=
METAR LIPHTREVISO SAN ANGELO 121545Z 14006KT 9999 FEW020 30/21 Q1016=
METAR LIPZVENICE TESSERA 121550Z 15009KT CAVOK 29/21 Q1015=
METAR LIPEBOLOGNA 121550Z 08010KT 050V120 CAVOK 33/16 Q1014=
METAR LIPKFORLI 121550Z 10012KT 9999 SCT030 30/19 Q1014=
METAR LIRQFLORENCE PERETOLA 121550Z VRB05KT 9999 FEW040 36/09 Q1013=
METAR LIPRRIMINI 121545Z 09017KT CAVOK 29/27 Q1015=
METAR LIRPPISA 121545Z 30010KT 240V320 9999 FEW025 FEW030CB 28/22 Q1015 NOSIG=
METAR LIRAROME CIAMPINO 121545Z 22007KT 160V280 9999 FEW020TCU 31/14 Q1016=
METAR LIRFROME FIUMICINO 121550Z 25008KT CAVOK 29/15 Q1015 NOSIG=
METAR LIRNNAPLES 121550Z 30009KT 9999 FEW040 30/18 Q1015=
METAR LFKBBASTIA 121600Z 02005KT 340V050 9999 FEW020TCU 28/20 Q1015 NOSIG=
METAR LFKJAJACCIO 121600Z 23005KT 9999 FEW050TCU 29/20 Q1014 NOSIG=
METAR LIEOOLBIA COSTA SMERALDA 121550Z 04009KT CAVOK 27/21 Q1015=
METAR LIEAALGHERO FERTILIA 121550Z VRB05KT CAVOK 31/17 Q1015=
METAR LIEECAGLIARI-ELMAS 121550Z NIL=
METAR LIBDBARI 121550Z 36011KT 9999 FEW025 27/19 Q1016=
METAR LIBRBRINDISI 121545Z 30013KT CAVOK 28/21 Q1015 NOSIG=
METAR LICCCATANIA FONTAN ARROS 121550Z 11009KT 9999 FEW080 29/22 Q1015=
METAR LICJPALERMO PUNTA RAISI 121550Z 04017KT CAVOK 28/23 Q1015=
METAR LMMLMALTA LUQA 121545Z 12006KT 070V160 CAVOK 29/19 Q1016 NOSIG=





Oesterreich/Ungarn

VQLA04 LSSW 121631
MeteoSchweiz / MeteoSuisse / MeteoSvizzera / MeteoSwiss
METAR LSZHZURICH 121550Z 28008KT 240V320 9999 FEW050 25/14 Q1020 NOSIG=
METAR LSZHZURICH 121620Z 30008KT 250V320 9999 FEW050 25/13 Q1019 NOSIG=
METAR LSGGGENEVA 121550Z 04007KT 350V070 9999 FEW060 27/14 Q1019 NOSIG=
METAR LSGGGENEVA 121620Z 05008KT 020V080 9999 FEW060 27/13 Q1019 NOSIG=
METAR LFSBBASLE-MULHOUSE 121600Z 25005KT 220V280 9999 FEW055 27/14 Q1019 NOSIG=
METAR EDNYFRIEDRICHSHAFEN 121620Z 25005KT 220V300 9999 FEW035 25/15 Q1019=
METAR CCALOIHDORNBIRN HOHENEMS 121600Z 36003KT 9999 FEW040TCU 26/16 Q1020 RMK SCT=
METAR CCALOWZZELL AM SEE 121600Z 32005KT 9999 BKN060TCU 23/08 Q1018 RMK BKN=
METAR EDDMMUNICH 121620Z 28006KT CAVOK 25/11 Q1019 NOSIG=
METAR LOWSSALZBURG 121620Z 30004KT 260V350 9999 FEW050 BKN300 24/10 Q1019 NOSIG=
METAR LOWLLINZ 121620Z 27003KT 9999 FEW030 SCT100 BKN270 23/16 Q1018 NOSIG=
METAR LOWKKLAGENFURT 121620Z VRB02KT 9999 FEW055 BKN110 25/14 Q1017 NOSIG=
METAR LOWGGRAZ 121620Z 17004KT 9999 FEW050 SCT300 26/11 Q1017 NOSIG=
METAR LOWWVIENNA SCHWECHAT 121620Z 30011KT 9999 FEW060 SCT085 BKN100 23/12 Q1017 NOSIG=
METAR LHBPBUDAPEST 121600Z 30015KT CAVOK 26/13 Q1016 NOSIG =





Skandinavien

VQLA12 LSSW 121631
MeteoSchweiz / MeteoSuisse / MeteoSvizzera / MeteoSwiss
METAR LSZHZURICH 121550Z 28008KT 240V320 9999 FEW050 25/14 Q1020 NOSIG=
METAR LSZHZURICH 121620Z 30008KT 250V320 9999 FEW050 25/13 Q1019 NOSIG=
METAR LSGGGENEVA 121550Z 04007KT 350V070 9999 FEW060 27/14 Q1019 NOSIG=
METAR LSGGGENEVA 121620Z 05008KT 020V080 9999 FEW060 27/13 Q1019 NOSIG=
METAR LFSBBASLE-MULHOUSE 121600Z 25005KT 220V280 9999 FEW055 27/14 Q1019 NOSIG=
METAR EDDMMUNICH 121620Z 28006KT CAVOK 25/11 Q1019 NOSIG=
METAR EDDSSTUTTGART 121620Z 27006KT CAVOK 25/11 Q1019 NOSIG=
METAR EDDFFRANKFURT 121620Z 24013KT CAVOK 26/12 Q1016 NOSIG=
METAR EDDEERFURT 121620Z 27015KT 9999 -RA FEW030 BKN040 BKN100 19/14 Q1017 NOSIG=
METAR EDDVHANNOVER 121620Z 26011KT 9999 FEW030TCU SCT250 22/15 Q1014 NOSIG=
METAR EDDHHAMBURG 121620Z 30016KT 9999 FEW030 SCT050 20/13 Q1013 NOSIG=
METAR EKCHCOPENHAGEN KASTRUP 121620Z 29013KT 9999 FEW020CB BKN090 20/13 Q1008 NOSIG=
METAR EKBIBILLUND 121620Z 28015KT 9999 FEW021 BKN078 18/13 Q1010=
METAR EKAHAARHUS 121620Z AUTO 28007KT 220V340 9999NDV FEW030/// SCT055/// BKN095/// 19/12 Q1009=
METAR EKYTAALBORG 121620Z 27012KT 250V310 9999 SCT025 18/12 Q1008=
METAR ENCNKRISTIANSAND KJEVI 121620Z 28008KT 9999 FEW045 SCT088 21/11 Q1006=
METAR ENZVSTAVANGER SOLA 121620Z 27008KT 9999 -SHRA SCT013CB BKN025 16/13 Q1007 NOSIG=
METAR ENBRBERGEN FLESLAND 121620Z 23004KT 9999 SCT025TCU BKN040 16/11 Q1007 NOSIG =
METAR ENGMOSLO GARDERMOEN 121611Z 22004KT 180V260 9999 FEW048CB SCT092 20/10 Q1004 NOSIG=
METAR ENVATRONDHEIM VAERNES 121620Z 25014KT 9999 -SHRA FEW025CB SCT035 BKN060 13/10 Q1006 NOSIG =
METAR ENBOBODO 121620Z 24008KT 9999 VCSH FEW012TCU SCT030 BKN070 13/08 Q1002 TEMPO SHRA BKN014TCU=
METAR ENTCTROMSO 121620Z 27012KT 9999 FEW013 SCT030 BKN070 13/10 Q0999 NOSIG =
METAR ESMSMALMO STURUP 121620Z 26010KT 9999 FEW031 SCT041 20/13 Q1008=
METAR ESSVVISBY 121620Z 28009KT 9999 FEW025 17/13 Q1004=
METAR ESSASTOCKHOLM ARLANDA 121620Z 32007KT CAVOK 19/11 Q1002 NOSIG=
METAR ESOWSTOCKHOLM VASTERAS 121620Z 34008KT 9999 -DZ FEW062 BKN089 18/09 Q1003=
METAR ESSPNORRKOPING 121620Z 26005KT 9999 -RA FEW020 14/13 Q1004=
METAR ESNNSUNDSVALL-HARNOSAND 121620Z 29009KT CAVOK 19/08 Q1000=
METAR ESPALULEA KALLAX 121620Z 35005KT 320V030 CAVOK 17/12 Q0997=
METAR ESNQKIRUNA 121620Z NIL=
METAR EFHKHELSINKI VANTAA 121620Z 23008KT 9999 VCSH FEW008 FEW030CB BKN070 17/16 Q0998 NOSIG=
METAR EFTUTURKU 121620Z 28014KT 260V320 9999 FEW023 SCT038 FEW044CB 17/13 Q0999=
METAR EFTPTAMPERE-PIRKKALA 121620Z 24006KT 190V270 9999 FEW008 SCT020 BKN040 15/15 Q0997 RESHRA=





Benelux

VQLA10 LSSW 121635
MeteoSchweiz / MeteoSuisse / MeteoSvizzera / MeteoSwiss
METAR LSZHZURICH 121550Z 28008KT 240V320 9999 FEW050 25/14 Q1020 NOSIG=
METAR LSZHZURICH 121620Z 30008KT 250V320 9999 FEW050 25/13 Q1019 NOSIG=
METAR LSGGGENEVA 121550Z 04007KT 350V070 9999 FEW060 27/14 Q1019 NOSIG=
METAR LSGGGENEVA 121620Z 05008KT 020V080 9999 FEW060 27/13 Q1019 NOSIG=
METAR LFSBBASLE-MULHOUSE 121600Z 25005KT 220V280 9999 FEW055 27/14 Q1019 NOSIG=
METAR LFSTSTRASBOURG ENTZHEIM 121600Z 00000KT 9999 FEW053 BKN250 27/15 Q1018 NOSIG=
METAR LFSRREIMS CHAMPAGNE 121600Z AUTO 28008KT 9999NDV NSC 28/15 Q1018=
METAR ELLXLUXEMBOURG 121620Z 27012KT 230V310 9999 SCT040 SCT200 23/14 Q1019 NOSIG=
METAR LFJLMETZ NANCY LORRAINE 121600Z AUTO 27011KT 9999NDV NSC 25/14 Q1019=
METAR EDDFFRANKFURT 121620Z 24013KT CAVOK 26/12 Q1016 NOSIG=
METAR EDDRSAARBRUCKEN 121620Z 25012KT 9999 FEW043 BKN300 24/13 Q1019 NOSIG=
METAR EDDKKOLN-BONN 121620Z 34005KT 6000 -RA FEW025 BKN035 19/17 Q1016 NOSIG=
METAR EBCICHARLEROI BRUSSELS S 121620Z 27009KT 240V310 9999 SCT035 24/16 Q1018 TEMPO 26015G25KT=
METAR EBBRBRUSSELS 121620Z 33008KT 300V360 9999 FEW034 SCT049 21/16 Q1018 NOSIG=
METAR EBAWANTWERP 121620Z 30007KT 270V330 9999 SCT012 OVC035 20/17 Q1017 NOSIG=
METAR EBOSOSTEND 121620Z 26014KT 9999 BKN020 19/16 Q1018 NOSIG=
METAR EHBKMAASTRICHT 121625Z AUTO 35007KT 320V040 4400NDV BR FEW004 BKN005 BKN006 19/18 Q1017 BECMG 9999 NSW=
METAR EHAMAMSTERDAM SCHIPHOL 121625Z 28012KT 9999 FEW013 SCT015 19/16 Q1016 NOSIG=
METAR EHRDROTTERDAM 121625Z 27007KT 240V310 9999 SCT013 BKN016 BKN033 19/16 Q1016 NOSIG=
METAR EHGGGRONINGEN EELDE 121625Z AUTO 30010KT 260V340 9999NDV FEW044 19/14 Q1015 NOSIG=





Irland/Grossbritanien

VQLA11 LSSW 121636
MeteoSchweiz / MeteoSuisse / MeteoSvizzera / MeteoSwiss
METAR LSZHZURICH 121550Z 28008KT 240V320 9999 FEW050 25/14 Q1020 NOSIG=
METAR LSZHZURICH 121620Z 30008KT 250V320 9999 FEW050 25/13 Q1019 NOSIG=
METAR LSGGGENEVA 121550Z 04007KT 350V070 9999 FEW060 27/14 Q1019 NOSIG=
METAR LSGGGENEVA 121620Z 05008KT 020V080 9999 FEW060 27/13 Q1019 NOSIG=
METAR LFSBBASLE-MULHOUSE 121630Z 25005KT 210V280 9999 FEW055 26/14 Q1019 NOSIG=
METAR LFSTSTRASBOURG ENTZHEIM 121630Z 31006KT 270V340 9999 FEW053 BKN260 27/14 Q1018 NOSIG=
METAR LFLYLYON BRON 121630Z AUTO 36011KT 9999NDV NSC 29/12 Q1018=
METAR LFPGPARIS DE GAULLE 121630Z 31012KT 270V330 CAVOK 28/15 Q1019 NOSIG=
METAR EGJBGUERNSEY 121620Z 26012KT 5000 BR FEW000 SCT002 BKN003 17/17 Q1023=
METAR EGJJJERSEY 121620Z 27009KT 230V310 0300 R27/0400 -DZ OVC000 17/16 Q1023 TEMPO 1200 BKN001=
METAR EDDFFRANKFURT 121620Z 24013KT CAVOK 26/12 Q1016 NOSIG=
METAR EDDRSAARBRUCKEN 121620Z 25012KT 9999 FEW043 BKN300 24/13 Q1019 NOSIG=
METAR EBBRBRUSSELS 121620Z 33008KT 300V360 9999 FEW034 SCT049 21/16 Q1018 NOSIG=
METAR EBOSOSTEND 121620Z 26014KT 9999 BKN020 19/16 Q1018 NOSIG=
METAR EGHISOUTHAMPTON 121620Z 30009KT 270V330 9999 SCT025 BKN030 22/15 Q1019 =
METAR EGHHBOURNEMOUTH HURN 121620Z 29009KT 9999 FEW023 SCT029 22/17 Q1020=
METAR EGTEEXETER 121620Z 29009KT 9999 BKN020 21/17 Q1020=
METAR RRAEGHDPLYMOUTH ROBOROUGH 121620Z 28009KT 9999 BKN009 20/17 Q1022=
METAR EGKKLONDON GATWICK 121620Z 27010KT 9999 FEW024 BKN035 22/17 Q1018=
METAR CCAEGLLLONDON HEATHROW 121620Z 25011KT 220V280 9999 FEW024 BKN028 23/16 Q1018 NOSIG=
METAR EGKBBIGGIN HILL 121620Z 27006KT 230V300 9999 SCT015 BKN022 21/16 Q1019 =
METAR EGMCSOUTHEND 121620Z 26014KT 230V300 9999 FEW007 SCT024 BKN036 22/16 Q1018=
METAR EGGWLUTON 121620Z 26007KT 240V300 9999 FEW015 20/17 Q1018=
METAR EGSSLONDON STANSTED 121620Z 26006KT 9999 -SHRA FEW022 BKN028 18/17 Q1018=
METAR EGGDBRISTOL 121620Z 26013KT 2000 BR OVC002 17/16 Q1020=
METAR EGFFCARDIFF 121620Z NIL=
METAR EGSCCAMBRIDGE 121620Z 26008KT 220V290 9999 SCT023 21/17 Q1017 =
METAR EGSHNORWICH 121620Z 26012KT 9999 SCT028 22/15 Q1016 NOSIG=
METAR EGBBBIRMINGHAM 121620Z 28009KT 9999 SCT045 21/16 Q1017=
METAR EGNXEAST MIDLANDS 121620Z 27008KT 9999 SCT029 21/14 Q1017=
METAR CCAEGCCMANCHESTER INTL 121620Z 29009KT 9999 FEW025 SCT032 18/12 Q1018 NOSIG=
METAR EGNMLEEDS BRADFORD 121620Z 28019KT 240V310 9999 FEW025 17/11 Q1017=
METAR EGNHBLACKPOOL 121620Z 26011KT 9999 SCT019 SCT032 18/14 Q1018=
METAR EGNVTEESSIDE 121620Z 27018KT 9999 SCT035 20/11 Q1016=
METAR EGNTNEWCASTLE 121620Z 27018KT 9999 FEW028 17/11 Q1015=
METAR EGPKPRESTWICK 121620Z 28011KT 9999 VCSH SCT008 BKN017 16/12 Q1017=
METAR EGPHEDINBURGH 121620Z 26014KT 9999 FEW028 SCT045TCU 18/12 Q1014=
METAR EGPFGLASGOW 121620Z 26012KT 9999 FEW022 SCT045 17/12 Q1016=
METAR EGPDABERDEEN DYCE 121620Z 31011KT 9999 SCT040 18/10 Q1012 NOSIG=
METAR EGPOSTORNOWAY 121620Z 30009KT 9999 FEW016 BKN024 16/11 Q1015=
METAR EGAABELFAST ALDERGROVE 121620Z 31011KT 9999 FEW031 BKN047 17/12 Q1018=
METAR EIDWDUBLIN 121630Z 29013KT 9999 FEW017 SCT022 BKN240 20/15 Q1018 NOSIG=
METAR EINNSHANNON 121630Z 28010KT 9999 BKN018 BKN022 17/13 Q1021 NOSIG=
METAR EICKCORK 121630Z 30008KT 260V330 9999 SCT010 BKN015 18/16 Q1020 TEMPO 5000 BKN007=





Spanien/Portugal

VQLA09 LSSW 121615
MeteoSchweiz / MeteoSuisse / MeteoSvizzera / MeteoSwiss
METAR LSZHZURICH 121520Z 26006KT 200V310 9999 FEW050 26/14 Q1020 NOSIG=
METAR LSZHZURICH 121550Z 28008KT 240V320 9999 FEW050 25/14 Q1020 NOSIG=
METAR LSGGGENEVA 121520Z 06005KT 350V140 9999 FEW055 27/14 Q1020 NOSIG=
METAR LSGGGENEVA 121550Z 04007KT 350V070 9999 FEW060 27/14 Q1019 NOSIG=
METAR LFSBBASLE-MULHOUSE 121600Z 25005KT 220V280 9999 FEW055 27/14 Q1019 NOSIG=
METAR LFLLLYON SAINT EXUPERY 121600Z 34011KT 310V010 CAVOK 28/12 Q1019 NOSIG=
METAR LFLSGRENOBLE ST.GEOIRS 121600Z 35009KT 310V030 9999 FEW050 28/13 Q1019 NOSIG=
METAR LFMLMARSEILLE PROVENCE 121600Z 18009KT CAVOK 31/16 Q1015 NOSIG=
METAR LFMPPERPIGNAN RIVESALT 121600Z 33012KT 9999 FEW080 34/10 Q1016 NOSIG=
METAR LFBZBIARRITZ BAYONNE 121600Z 34010KT 9999 FEW023 24/19 Q1021 NOSIG=
METAR LEGEGIRONA 121600Z 21009KT 170V250 9999 FEW025 30/12 Q1016=
METAR LEBLBARCELONA 121600Z 12008KT 9999 FEW025 28/18 Q1016 NOSIG=
METAR LERSREUS 121600Z 19008KT 150V230 9999 FEW035 28/16 Q1017=
METAR LEVCVALENCIA 121600Z 11010KT 070V150 9999 FEW030 29/16 Q1017 NOSIG=
METAR LEIBIBIZA 121600Z 09008KT 050V120 9999 SCT030 28/20 Q1016 NOSIG=
METAR LEPAPALMA DE MALLORCA 121600Z 05011KT 9999 FEW040 31/14 Q1017 NOSIG=
METAR LEMHMENORCA 121600Z 02011KT 360V060 9999 FEW040 26/19 Q1017=
METAR LEMDMADRID BARAJAS 121600Z 20006G25KT 9999 SCT070 33/08 Q1018 NOSIG=
METAR LEALALICANTE 121600Z 08015KT 050V110 9999 FEW030TCU 28/21 Q1016 NOSIG=
METAR LEAMALMERIA 121600Z 27014KT CAVOK 30/17 Q1015 WS ALL RWY=
METAR LEMGMALAGA 121600Z 15010KT 110V200 9999 FEW020 FEW025TCU 29/17 Q1016 NOSIG=
METAR LEZLSEVILLE 121600Z 00000KT 9999 FEW035TCU 38/11 Q1013 NOSIG=
METAR LXGBGIBRALTAR 121550Z 07006KT 9999 FEW040 25/21 Q1016 NOSIG=
METAR LESOSAN SEBASTIAN 121600Z 01004KT 310V100 9999 SCT015 BKN025 23/19 Q1021=
METAR LEBBBILBAO 121600Z 36009KT 330V050 9999 FEW025 25/18 Q1021 NOSIG=
METAR LECOA CORUNA 121600Z 35006KT 320V020 CAVOK 28/19 Q1017=
METAR LESTSANTIAGO 121600Z 04006KT 350V090 9999 FEW035 31/19 Q1018 NOSIG=
METAR LEVXVIGO 121600Z 27006KT CAVOK 33/17 Q1017=
METAR LPFRFARO 121600Z 25007KT 220V280 CAVOK 30/21 Q1015=
METAR LPPTLISBON 121600Z 30010KT 260V330 9999 FEW035 35/15 Q1015 NOSIG=
METAR LPPRPORTO 121600Z 31008KT 290V350 9999 FEW020 29/16 Q1016=
METAR LPPSPORTO SANTO 121600Z 03011KT 360V060 9999 FEW016 BKN030 24/18 Q1019=





Tschechien/Slowakei/Polen

VQLA13 LSSW 121616
MeteoSchweiz / MeteoSuisse / MeteoSvizzera / MeteoSwiss
METAR LSZHZURICH 121520Z 26006KT 200V310 9999 FEW050 26/14 Q1020 NOSIG=
METAR LSZHZURICH 121550Z 28008KT 240V320 9999 FEW050 25/14 Q1020 NOSIG=
METAR LSGGGENEVA 121520Z 06005KT 350V140 9999 FEW055 27/14 Q1020 NOSIG=
METAR LSGGGENEVA 121550Z 04007KT 350V070 9999 FEW060 27/14 Q1019 NOSIG=
METAR LFSBBASLE-MULHOUSE 121600Z 25005KT 220V280 9999 FEW055 27/14 Q1019 NOSIG=
METAR EDDSSTUTTGART 121550Z 28006KT CAVOK 25/11 Q1019 NOSIG=
METAR EDMAAUGSBURG MUHLHAUSEN 121550Z 28006KT CAVOK 24/13 Q1019=
METAR EDDMMUNICH 121550Z 28011KT CAVOK 25/10 Q1019 NOSIG=
METAR EDDNNURNBERG 121550Z 27010KT 9999 FEW040 SCT100 BKN300 24/11 Q1018 NOSIG=
METAR LOWLLINZ 121550Z 27003KT 240V300 9999 FEW030 BKN095 23/16 Q1018 NOSIG=
METAR LOWWVIENNA SCHWECHAT 121550Z 29013KT 9999 FEW060 BKN110 24/12 Q1017 NOSIG=
METAR LKKVKARLOVY VARY 121600Z 25009KT 240V310 9999 FEW033 20/10 Q1017=
METAR LKPRPRAGUE RUZYNE 121600Z 27012KT CAVOK 21/11 Q1017 NOSIG=
METAR LKTBBRNO TURANY 121600Z 30008KT 270V350 CAVOK 23/14 Q1016 NOSIG=
METAR LZIBBRATISLAVA 121600Z VRB01KT CAVOK 23/16 Q1017 NOSIG=
METAR LZTTPOPRAD 121600Z 26013KT 240V300 9999 FEW030 SCT050 BKN080 17/12 Q1017 NOSIG=
METAR EPKKKRAKOW-BALICE 121600Z 29010KT 8000 -RA BKN046 17/16 Q1016=
METAR EPWAWARSAW-OKECIE 121600Z 28011KT 240V310 CAVOK 21/12 Q1012 NOSIG=
METAR EPPOPOZNAN 121600Z 28011KT 9999 SCT036 21/12 Q1013=
METAR EPGDGDANSK 121600Z 27008KT 9999 -SHRA FEW005 SCT015CB SCT026 15/14 Q1010=





Balkan

VQLA14 LSSW 121618
MeteoSchweiz / MeteoSuisse / MeteoSvizzera / MeteoSwiss
METAR LSZHZURICH 121520Z 26006KT 200V310 9999 FEW050 26/14 Q1020 NOSIG=
METAR LSZHZURICH 121550Z 28008KT 240V320 9999 FEW050 25/14 Q1020 NOSIG=
METAR LSGGGENEVA 121520Z 06005KT 350V140 9999 FEW055 27/14 Q1020 NOSIG=
METAR LSGGGENEVA 121550Z 04007KT 350V070 9999 FEW060 27/14 Q1019 NOSIG=
METAR LFSBBASLE-MULHOUSE 121600Z 25005KT 220V280 9999 FEW055 27/14 Q1019 NOSIG=
METAR RRALSZALUGANO 121520Z 25003KT 190V330 9999 FEW050 30/18 Q1016 NOSIG=
METAR LSZALUGANO 121550Z 25004KT 170V300 9999 FEW050 30/18 Q1016 NOSIG=
METAR LIMCMILAN MALPENSA 121550Z 24006KT 200V280 CAVOK 30/21 Q1015 NOSIG=
METAR LIMLMILAN LINATE 121550Z VRB02KT 9999 FEW030 32/20 Q1015 NOSIG=
METAR LIMEBERGAMO ORIO AL SERI 121550Z NIL=
METAR CCALIPXVERONA VILLAFRANCA 121555Z 18004KT 9999 FEW030 33/11 Q1014 RMK FEW VIS MIN 9999 BLU=
METAR LIPZVENICE TESSERA 121550Z 15009KT CAVOK 29/21 Q1015=
METAR LIPBBOLZANO 121550Z 15006KT 110V180 9999 FEW070 30/17 Q1015 RMK MON LIB VIS MIN 9999=
METAR LOWIINNSBRUCK 121550Z 06008KT 9999 FEW065 25/14 Q1018 NOSIG=
METAR LOWKKLAGENFURT 121550Z 09003KT 020V160 9999 FEW055 SCT110 26/16 Q1017 NOSIG=
METAR LJLJLJUBLJANA 121600Z 13006KT 9999 SCT040 BKN060 26/16 Q1017 NOSIG=
METAR LDRIRIJEKA 121600Z 34003KT 240V030 9999 SCT043 27/14 Q1017=
METAR LJMBMARIBOR 121600Z VRB02KT 9999 FEW040 SCT100 26/15 Q1017=
METAR LDZAZAGREB 121600Z 13007KT 090V150 CAVOK 28/15 Q1016 NOSIG =
METAR LYBEBELGRADE 121600Z 15004KT 130V190 CAVOK 25/17 Q1017 NOSIG=
METAR LQSASARAJEVO 121600Z 32003KT 9999 SCT050 25/13 Q1019 NOSIG=
METAR LDSPSPLIT 121600Z 28010KT 230V330 CAVOK 30/13 Q1015 NOSIG =
METAR LDDUDUBROVNIK 121600Z 29009KT 260V320 9999 SCT066 26/18 Q1015 NOSIG =
METAR LWSKSKOPJE 121600Z 01005KT 9999 FEW040 24/16 Q1016 NOSIG=
METAR LRARARAD 121600Z 31002KT 9999 FEW040 25/18 Q1015=
METAR LROPBUCHAREST(OTOPENI) 121600Z 29003KT 260V350 CAVOK 27/15 Q1014 8809//95 NOSIG=
METAR LRCKCONSTANTA-MIHAIL KOG 121600Z 11010KT 090V150 CAVOK 23/12 Q1016 NOSIG=
METAR CCALBSFSOFIA 121600Z 29004KT 240V340 9999 FEW050 BKN080 23/12 Q1017 NOSIG=
METAR CCALBBGBURGAS 121600Z 10012KT 080V150 CAVOK 24/14 Q1015 NOSIG=





Griechenland/T├╝rkei

VQLA15 LSSW 121611
MeteoSchweiz / MeteoSuisse / MeteoSvizzera / MeteoSwiss
METAR LSZHZURICH 121520Z 26006KT 200V310 9999 FEW050 26/14 Q1020 NOSIG=
METAR LSZHZURICH 121550Z 28008KT 240V320 9999 FEW050 25/14 Q1020 NOSIG=
METAR LSGGGENEVA 121520Z 06005KT 350V140 9999 FEW055 27/14 Q1020 NOSIG=
METAR LSGGGENEVA 121550Z 04007KT 350V070 9999 FEW060 27/14 Q1019 NOSIG=
METAR LFSBBASLE-MULHOUSE 121600Z 25005KT 220V280 9999 FEW055 27/14 Q1019 NOSIG=
METAR RRALSZALUGANO 121520Z 25003KT 190V330 9999 FEW050 30/18 Q1016 NOSIG=
METAR LSZALUGANO 121550Z 25004KT 170V300 9999 FEW050 30/18 Q1016 NOSIG=
METAR LOWIINNSBRUCK 121550Z 06008KT 9999 FEW065 25/14 Q1018 NOSIG=
METAR LOWWVIENNA SCHWECHAT 121550Z 29013KT 9999 FEW060 BKN110 24/12 Q1017 NOSIG=
METAR LDZAZAGREB 121600Z 13007KT 090V150 CAVOK 28/15 Q1016 NOSIG =
METAR LYBEBELGRADE 121530Z 13005KT CAVOK 25/17 Q1017 NOSIG=
METAR LDDUDUBROVNIK 121600Z 29009KT 260V320 9999 SCT066 26/18 Q1015 NOSIG =
METAR LIMCMILAN MALPENSA 121550Z 24006KT 200V280 CAVOK 30/21 Q1015 NOSIG=
METAR LIPEBOLOGNA 121550Z 08010KT 050V120 CAVOK 33/16 Q1014=
METAR LIPRRIMINI 121545Z 09017KT CAVOK 29/27 Q1015=
METAR LIRFROME FIUMICINO 121550Z 25008KT CAVOK 29/15 Q1015 NOSIG=
METAR LIBRBRINDISI 121545Z 30013KT CAVOK 28/21 Q1015 NOSIG=
METAR LIBDBARI 121550Z 36011KT 9999 FEW025 27/19 Q1016=
METAR LGKRKERKIRA 121550Z 31010KT 9999 SCT020 FEW025TCU 30/16 Q1011 NOSIG=
METAR LGZAZAKINTHOS 121550Z 34012KT 9999 FEW018TCU 29/19 Q1012=
METAR LGKLKALAMATA 121550Z 00000KT 9999 FEW005 FEW020TCU SCT035 BKN080 23/21 Q1013=
METAR LGAVATHENS ELEFTHERIOS V 121550Z 04017KT 9999 FEW030 26/08 Q1013 NOSIG RMK QNH 1013.9=
METAR LGTSTHESSALONIKI MAKEDON 121550Z VRB03KT 9999 FEW016CB SCT030 26/17 Q1016 NOSIG=
METAR LGALALEXANDROUPOLIS 121550Z 24010KT 9999 FEW025 SCT040 BKN180 27/14 Q1013=
METAR LGIRIRAKLION NIKOS KAZAN 121550Z 31011KT CAVOK 26/18 Q1012 NOSIG=
METAR LGRPRHODOS DIAGORAS 121550Z 24014KT CAVOK 27/17 Q1007 NOSIG=
METAR LGSMSAMOS 121550Z 32012KT 270V360 CAVOK 28/22 Q1009 RMK RWY27 32012KT=
METAR LTBAISTANBUL ATATURK 121550Z 03014KT 340V050 9999 SCT035 25/11 Q1014 NOSIG=
METAR LTBJIZMIR ADNAN 121550Z 33022KT CAVOK 28/09 Q1009 NOSIG=
METAR LCLKLARNACA 121600Z 22010KT CAVOK 29/22 Q1007 NOSIG=





top